createdAt,value
2019-02-07T00:00:47.168Z,97529.30
2019-02-07T00:03:16.567Z,97530.23
2019-02-07T00:05:45.958Z,97517.67
2019-02-07T00:08:15.351Z,97520.00
2019-02-07T00:10:44.727Z,97512.20
2019-02-07T00:13:14.120Z,97509.39
2019-02-07T00:15:43.489Z,97510.97
2019-02-07T00:18:12.809Z,97508.91
2019-02-07T00:20:42.179Z,97509.95
2019-02-07T00:23:11.578Z,97503.80
2019-02-07T00:25:41.009Z,97500.64
2019-02-07T00:28:10.337Z,97494.67
2019-02-07T00:30:39.734Z,97497.97
2019-02-07T00:33:09.057Z,97491.21
2019-02-07T00:35:38.363Z,97497.46
2019-02-07T00:38:07.686Z,97499.77
2019-02-07T00:40:37.075Z,97494.88
2019-02-07T00:43:06.447Z,97493.80
2019-02-07T00:45:35.762Z,97496.36
2019-02-07T00:48:05.295Z,97492.48
2019-02-07T00:50:34.618Z,97487.83
2019-02-07T00:53:04.697Z,97486.45
2019-02-07T00:55:34.101Z,97483.34
2019-02-07T00:58:03.412Z,97480.30
2019-02-07T01:00:32.862Z,97483.78
2019-02-07T01:03:02.181Z,97478.03
2019-02-07T01:05:31.545Z,97480.09
2019-02-07T01:08:01.317Z,97481.04
2019-02-07T01:10:31.255Z,97473.53
2019-02-07T01:13:00.581Z,97476.80
2019-02-07T01:15:29.973Z,97468.73
2019-02-07T01:17:59.272Z,97465.44
2019-02-07T01:20:28.687Z,97470.52
2019-02-07T01:22:58.440Z,97467.25
2019-02-07T01:25:27.805Z,97467.38
2019-02-07T01:27:57.128Z,97461.83
2019-02-07T01:30:28.339Z,97467.84
2019-02-07T01:32:57.662Z,97462.76
2019-02-07T01:35:27.019Z,97455.81
2019-02-07T01:37:56.599Z,97455.27
2019-02-07T01:40:25.973Z,97454.83
2019-02-07T01:42:55.878Z,97449.78
2019-02-07T01:45:25.549Z,97445.94
2019-02-07T01:47:54.875Z,97438.75
2019-02-07T01:50:27.902Z,97434.22
2019-02-07T01:52:57.196Z,97431.36
2019-02-07T01:55:26.670Z,97426.83
2019-02-07T01:57:56.102Z,97430.88
2019-02-07T02:00:25.493Z,97423.43
2019-02-07T02:02:54.861Z,97425.99
2019-02-07T02:05:24.239Z,97421.39
2019-02-07T02:07:53.557Z,97416.67
2019-02-07T02:10:28.655Z,97418.41
2019-02-07T02:12:58.047Z,97408.75
2019-02-07T02:15:27.583Z,97404.17
2019-02-07T02:17:56.944Z,97403.73
2019-02-07T02:20:26.887Z,97399.45
2019-02-07T02:22:56.552Z,97397.05
2019-02-07T02:25:25.858Z,97393.58
2019-02-07T02:27:55.248Z,97383.72
2019-02-07T02:30:31.294Z,97388.63
2019-02-07T02:33:01.039Z,97380.11
2019-02-07T02:35:30.362Z,97380.44
2019-02-07T02:37:59.733Z,97378.74
2019-02-07T02:40:29.114Z,97379.20
2019-02-07T02:42:58.578Z,97371.87
2019-02-07T02:45:37.097Z,97372.48
2019-02-07T02:47:58.929Z,97367.73
2019-02-07T02:50:28.231Z,97367.47
2019-02-07T02:52:57.618Z,97362.58
2019-02-07T02:55:28.624Z,97354.94
2019-02-07T02:57:57.950Z,97349.70
2019-02-07T03:00:39.344Z,97355.64
2019-02-07T03:03:19.375Z,97356.39
2019-02-07T03:06:08.748Z,97349.38
2019-02-07T03:08:38.386Z,97349.91
2019-02-07T03:11:10.510Z,97346.38
2019-02-07T03:13:57.778Z,97346.98
2019-02-07T03:16:34.711Z,97345.66
2019-02-07T03:19:08.925Z,97337.45
2019-02-07T03:21:54.934Z,97340.52
2019-02-07T03:24:25.902Z,97331.11
2019-02-07T03:26:59.430Z,97333.59
2019-02-07T03:29:46.743Z,97341.95
2019-02-07T03:32:20.407Z,97336.11
2019-02-07T03:35:00.486Z,97336.22
2019-02-07T03:37:29.567Z,97328.54
2019-02-07T03:40:00.571Z,97326.70
2019-02-07T03:42:34.595Z,97325.10
2019-02-07T03:45:22.565Z,97324.79
2019-02-07T03:48:09.975Z,97316.63
2019-02-07T03:50:59.082Z,97319.85
2019-02-07T03:53:45.552Z,97315.73
2019-02-07T03:56:25.317Z,97311.44
2019-02-07T03:59:14.719Z,97306.32
2019-02-07T04:01:54.617Z,97302.94
2019-02-07T04:04:32.833Z,97299.84
2019-02-07T04:07:06.430Z,97307.92
2019-02-07T04:09:49.164Z,97296.22
2019-02-07T04:12:38.255Z,97301.45
2019-02-07T04:15:15.550Z,97287.18
2019-02-07T04:17:44.610Z,97287.70
2019-02-07T04:20:15.588Z,97286.13
2019-02-07T04:22:50.543Z,97290.52
2019-02-07T04:25:21.569Z,97281.88
2019-02-07T04:27:52.875Z,97280.91
2019-02-07T04:30:40.129Z,97272.45
2019-02-07T04:33:27.221Z,97270.44
2019-02-07T04:35:58.855Z,97269.48
2019-02-07T04:38:32.416Z,97266.37
2019-02-07T04:41:03.433Z,97265.59
2019-02-07T04:43:40.153Z,97260.22
2019-02-07T04:46:26.397Z,97259.47
2019-02-07T04:49:05.369Z,97262.94
2019-02-07T04:51:45.172Z,97258.70
2019-02-07T04:54:22.294Z,97256.73
2019-02-07T04:56:53.343Z,97253.59
2019-02-07T04:59:37.666Z,97252.48
2019-02-07T05:02:14.510Z,97249.50
2019-02-07T05:04:48.102Z,97241.80
2019-02-07T05:07:27.707Z,97246.23
2019-02-07T05:09:59.056Z,97244.28
2019-02-07T05:12:32.941Z,97240.09
2019-02-07T05:15:15.897Z,97238.20
2019-02-07T05:20:56.527Z,97235.27
2019-02-07T05:23:27.462Z,97234.30
2019-02-07T05:26:03.908Z,97228.78
2019-02-07T05:28:40.565Z,97229.55
2019-02-07T05:31:20.278Z,97232.77
2019-02-07T05:33:51.290Z,97228.30
2019-02-07T05:36:25.939Z,97232.53
2019-02-07T05:39:08.903Z,97237.20
2019-02-07T05:41:42.794Z,97233.79
2019-02-07T05:44:19.573Z,97234.48
2019-02-07T05:46:53.156Z,97235.47
2019-02-07T05:49:25.495Z,97240.00
2019-02-07T05:52:12.779Z,97239.73
2019-02-07T05:54:52.533Z,97239.45
2019-02-07T05:57:30.390Z,97240.95
2019-02-07T06:00:04.012Z,97240.09
2019-02-07T06:02:34.950Z,97235.97
2019-02-07T06:05:24.165Z,97235.14
2019-02-07T06:08:10.951Z,97228.41
2019-02-07T06:10:48.889Z,97226.59
2019-02-07T06:13:25.429Z,97227.50
2019-02-07T06:16:12.474Z,97220.19
2019-02-07T06:18:59.663Z,97225.03
2019-02-07T06:21:30.693Z,97229.02
2019-02-07T06:24:01.654Z,97219.78
2019-02-07T06:26:48.788Z,97229.22
2019-02-07T06:29:34.788Z,97224.66
2019-02-07T06:32:08.884Z,97231.31
2019-02-07T06:34:42.517Z,97224.48
2019-02-07T06:37:16.563Z,97223.67
2019-02-07T06:40:03.966Z,97229.05
2019-02-07T06:42:34.911Z,97222.89
2019-02-07T06:45:20.539Z,97222.44
2019-02-07T06:48:09.931Z,97220.80
2019-02-07T06:50:50.088Z,97224.48
2019-02-07T06:53:37.440Z,97219.73
2019-02-07T06:56:24.432Z,97215.98
2019-02-07T06:59:02.329Z,97219.44
2019-02-07T07:01:45.264Z,97218.98
2019-02-07T07:04:16.298Z,97215.42
2019-02-07T07:06:47.233Z,97215.62
2019-02-07T07:09:33.327Z,97218.27
2019-02-07T07:12:22.693Z,97212.61
2019-02-07T07:14:53.666Z,97219.53
2019-02-07T07:17:26.066Z,97217.05
2019-02-07T07:20:13.448Z,97207.80
2019-02-07T07:22:44.419Z,97212.96
2019-02-07T07:25:15.359Z,97212.02
2019-02-07T07:27:59.588Z,97212.13
2019-02-07T07:30:33.360Z,97205.85
2019-02-07T07:33:07.048Z,97210.86
2019-02-07T07:35:38.004Z,97205.72
2019-02-07T07:38:11.578Z,97210.14
2019-02-07T07:40:42.793Z,97205.22
2019-02-07T07:43:30.463Z,97200.88
2019-02-07T07:46:07.233Z,97200.09
2019-02-07T07:48:51.620Z,97205.01
2019-02-07T07:51:31.711Z,97201.20
2019-02-07T07:54:11.513Z,97200.30
2019-02-07T07:56:48.636Z,97196.74
2019-02-07T07:59:25.492Z,97195.02
2019-02-07T08:01:57.130Z,97195.97
2019-02-07T08:04:45.565Z,97197.55
2019-02-07T08:07:19.446Z,97192.31
2019-02-07T08:09:54.471Z,97188.64
2019-02-07T08:12:26.402Z,97187.80
2019-02-07T08:14:57.348Z,97180.83
2019-02-07T08:17:31.189Z,97182.59
2019-02-07T08:20:17.925Z,97172.71
2019-02-07T08:22:48.859Z,97169.91
2019-02-07T08:25:34.757Z,97164.83
2019-02-07T08:28:03.909Z,97168.44
2019-02-07T08:30:37.318Z,97168.63
2019-02-07T08:33:15.260Z,97162.40
2019-02-07T08:36:02.668Z,97163.45
2019-02-07T08:38:39.187Z,97159.66
2019-02-07T08:44:14.178Z,97152.94
2019-02-07T08:46:47.783Z,97150.64
2019-02-07T08:49:27.525Z,97150.37
2019-02-07T08:52:14.674Z,97146.79
2019-02-07T08:55:01.584Z,97152.23
2019-02-07T08:57:38.881Z,97146.55
2019-02-07T09:00:17.562Z,97140.97
2019-02-07T09:02:52.094Z,97139.26
2019-02-07T09:05:23.212Z,97136.41
2019-02-07T09:08:10.148Z,97135.47
2019-02-07T09:10:54.278Z,97134.52
2019-02-07T09:13:25.907Z,97134.98
2019-02-07T09:15:57.133Z,97132.91
2019-02-07T09:18:38.095Z,97130.50
2019-02-07T09:21:17.715Z,97118.88
2019-02-07T09:23:54.310Z,97122.55
2019-02-07T09:26:27.972Z,97119.46
2019-02-07T09:29:15.044Z,97121.52
2019-02-07T09:31:59.004Z,97117.05
2019-02-07T09:34:29.963Z,97123.23
2019-02-07T09:37:15.733Z,97121.75
2019-02-07T09:40:04.856Z,97117.14
2019-02-07T09:42:33.938Z,97121.75
2019-02-07T09:45:10.779Z,97111.72
2019-02-07T09:47:44.272Z,97112.60
2019-02-07T09:50:26.891Z,97107.49
2019-02-07T09:53:23.546Z,97108.79
2019-02-07T09:55:45.867Z,97109.70
2019-02-07T09:58:16.812Z,97110.16
2019-02-07T10:00:53.355Z,97106.59
2019-02-07T10:03:36.770Z,97107.91
2019-02-07T10:06:16.508Z,97098.75
2019-02-07T10:09:03.129Z,97106.45
2019-02-07T10:11:36.635Z,97103.59
2019-02-07T10:14:22.431Z,97104.56
2019-02-07T10:16:55.942Z,97097.87
2019-02-07T10:19:42.908Z,97096.86
2019-02-07T10:22:28.916Z,97099.83
2019-02-07T10:24:59.801Z,97095.59
2019-02-07T10:27:46.385Z,97083.22
2019-02-07T10:30:17.100Z,97080.61
2019-02-07T10:32:48.404Z,97070.39
2019-02-07T10:35:25.222Z,97069.59
2019-02-07T10:37:58.586Z,97067.24
2019-02-07T10:40:27.674Z,97055.16
2019-02-07T10:43:01.202Z,97055.85
2019-02-07T10:45:46.984Z,97054.98
2019-02-07T10:48:42.782Z,97044.85
2019-02-07T10:51:07.837Z,97039.97
2019-02-07T10:53:36.931Z,97040.20
2019-02-07T10:56:10.665Z,97043.84
2019-02-07T10:58:57.252Z,97035.52
2019-02-07T11:01:28.500Z,97031.33
2019-02-07T11:04:02.067Z,97023.00
2019-02-07T11:06:44.859Z,97020.98
2019-02-07T11:09:33.676Z,97013.22
2019-02-07T11:12:16.706Z,97016.38
2019-02-07T11:14:47.702Z,97004.00
2019-02-07T11:17:27.547Z,97005.03
2019-02-07T11:20:14.223Z,97003.63
2019-02-07T11:22:50.631Z,96997.00
2019-02-07T11:25:24.042Z,96983.70
2019-02-07T11:28:12.915Z,96982.14
2019-02-07T11:30:46.296Z,96973.33
2019-02-07T11:33:30.099Z,96972.47
2019-02-07T11:36:16.848Z,96970.78
2019-02-07T11:39:03.865Z,96971.52
2019-02-07T11:41:38.065Z,96962.94
2019-02-07T11:44:09.018Z,96960.92
2019-02-07T11:46:40.996Z,96954.11
2019-02-07T11:49:26.633Z,96949.35
2019-02-07T11:51:55.970Z,96950.67
2019-02-07T11:54:26.934Z,96944.27
2019-02-07T11:57:12.807Z,96942.12
2019-02-07T12:00:01.642Z,96933.45
2019-02-07T12:02:33.538Z,96929.27
2019-02-07T12:05:04.487Z,96924.79
2019-02-07T12:07:50.059Z,96924.14
2019-02-07T12:10:27.591Z,96914.62
2019-02-07T12:13:01.002Z,96912.02
2019-02-07T12:15:41.114Z,96913.52
2019-02-07T12:18:15.709Z,96907.05
2019-02-07T12:20:58.675Z,96903.88
2019-02-07T12:23:31.236Z,96906.01
2019-02-07T12:26:16.902Z,96896.58
2019-02-07T12:28:59.821Z,96899.33
2019-02-07T12:31:46.591Z,96894.26
2019-02-07T12:34:20.001Z,96895.48
2019-02-07T12:36:53.878Z,96894.15
2019-02-07T12:39:40.539Z,96888.67
2019-02-07T12:42:09.622Z,96895.38
2019-02-07T12:44:43.476Z,96896.45
2019-02-07T12:47:20.059Z,96885.30
2019-02-07T12:50:02.770Z,96887.42
2019-02-07T12:52:43.756Z,96890.91
2019-02-07T12:55:17.295Z,96887.61
2019-02-07T12:57:56.967Z,96890.05
2019-02-07T13:00:45.624Z,96893.77
2019-02-07T13:03:25.102Z,96889.13
2019-02-07T13:06:11.819Z,96887.06
2019-02-07T13:08:54.775Z,96884.02
2019-02-07T13:11:31.635Z,96886.78
2019-02-07T13:14:05.355Z,96882.05
2019-02-07T13:16:48.376Z,96878.67
2019-02-07T13:19:23.023Z,96876.98
2019-02-07T13:22:06.854Z,96881.80
2019-02-07T13:24:41.332Z,96878.20
2019-02-07T13:27:19.464Z,96881.16
2019-02-07T13:30:06.326Z,96881.36
2019-02-07T13:32:37.260Z,96882.28
2019-02-07T13:35:25.453Z,96883.09
2019-02-07T13:37:56.380Z,96883.23
2019-02-07T13:40:42.144Z,96880.03
2019-02-07T13:43:28.912Z,96877.16
2019-02-07T13:46:05.581Z,96884.66
2019-02-07T13:48:52.527Z,96876.16
2019-02-07T15:36:41.174Z,96855.56
2019-02-07T15:39:12.132Z,96857.81
2019-02-07T15:41:41.423Z,96854.37
2019-02-07T15:44:10.737Z,96859.98
2019-02-07T15:46:40.024Z,96858.03
2019-02-07T15:49:09.346Z,96852.74
2019-02-07T15:51:38.727Z,96851.65
2019-02-07T15:54:08.069Z,96852.55
2019-02-07T15:56:37.356Z,96847.60
2019-02-07T15:59:08.289Z,96853.66
2019-02-07T16:01:39.253Z,96850.10
2019-02-07T16:04:12.958Z,96850.93
2019-02-07T16:06:42.790Z,96851.77
2019-02-07T16:09:12.083Z,96854.85
2019-02-07T16:11:41.462Z,96852.89
2019-02-07T16:14:10.768Z,96856.72
2019-02-07T16:16:40.071Z,96857.06
2019-02-07T16:19:09.453Z,96853.11
2019-02-07T16:21:38.989Z,96855.39
2019-02-07T16:24:08.277Z,96851.55
2019-02-07T16:26:37.589Z,96860.11
2019-02-07T16:29:06.952Z,96860.16
2019-02-07T16:31:36.268Z,96862.30
2019-02-07T16:34:05.557Z,96856.91
2019-02-07T16:36:35.051Z,96860.84
2019-02-07T16:39:06.881Z,96861.16
2019-02-07T16:41:36.193Z,96869.22
2019-02-07T16:44:05.509Z,96870.19
2019-02-07T16:46:34.870Z,96872.86
2019-02-07T16:49:04.261Z,96872.75
2019-02-07T16:51:33.553Z,96877.55
2019-02-07T16:54:02.882Z,96879.80
2019-02-07T16:56:32.165Z,96878.78
2019-02-07T16:59:01.575Z,96872.58
2019-02-07T17:01:31.950Z,96882.77
2019-02-07T17:04:01.261Z,96881.08
2019-02-07T17:06:30.554Z,96877.25
2019-02-07T17:09:00.113Z,96877.95
2019-02-07T17:11:29.406Z,96882.77
2019-02-07T17:13:58.726Z,96887.66
2019-02-07T17:16:28.050Z,96888.49
2019-02-07T17:18:57.361Z,96893.98
2019-02-07T17:21:26.682Z,96887.64
2019-02-07T17:23:56.064Z,96897.69
2019-02-07T17:26:25.442Z,96903.78
2019-02-07T17:28:54.761Z,96895.90
2019-02-07T17:31:24.119Z,96897.69
2019-02-07T17:33:53.421Z,96896.98
2019-02-07T17:36:22.754Z,96896.27
2019-02-07T17:38:52.047Z,96896.98
2019-02-07T17:41:21.372Z,96897.20
2019-02-07T17:43:50.663Z,96892.67
2019-02-07T17:46:19.986Z,96902.23
2019-02-07T17:48:49.291Z,96898.78
2019-02-07T17:51:23.366Z,96899.95
2019-02-07T17:53:49.824Z,96902.22
2019-02-07T17:56:19.137Z,96898.75
2019-02-07T17:58:48.457Z,96901.25
2019-02-07T18:01:17.777Z,96900.17
2019-02-07T18:03:47.068Z,96904.72
2019-02-07T18:06:16.563Z,96905.08
2019-02-07T18:08:45.877Z,96908.95
2019-02-07T18:11:15.215Z,96916.50
2019-02-07T18:13:44.501Z,96910.42
2019-02-07T18:16:13.818Z,96912.48
2019-02-07T18:18:43.143Z,96916.06
2019-02-07T18:21:12.828Z,96915.42
2019-02-07T18:23:42.186Z,96915.56
2019-02-07T18:26:11.561Z,96914.86
2019-02-07T18:28:40.892Z,96909.00
2019-02-07T18:31:10.186Z,96907.13
2019-02-07T18:33:41.173Z,96913.30
2019-02-07T18:36:10.519Z,96906.31
2019-02-07T18:38:39.842Z,96912.88
2019-02-07T18:41:09.152Z,96908.97
2019-02-07T18:43:38.483Z,96907.69
2019-02-07T18:46:07.772Z,96904.54
2019-02-07T18:48:37.229Z,96904.72
2019-02-07T18:51:06.831Z,96902.30
2019-02-07T18:53:36.149Z,96904.64
2019-02-07T18:56:05.508Z,96905.95
2019-02-07T18:58:34.802Z,96907.66
2019-02-07T19:01:04.147Z,96909.39
2019-02-07T19:03:33.438Z,96905.13
2019-02-07T19:06:03.070Z,96901.34
2019-02-07T19:08:32.360Z,96900.89
2019-02-07T19:11:01.679Z,96903.03
2019-02-07T19:13:30.969Z,96897.83
2019-02-07T19:16:01.702Z,96896.63
2019-02-07T19:18:30.996Z,96904.30
2019-02-07T19:21:00.320Z,96907.64
2019-02-07T19:23:29.638Z,96907.00
2019-02-07T19:25:58.961Z,96897.91
2019-02-07T19:28:28.257Z,96898.58
2019-02-07T19:30:57.589Z,96899.42
2019-02-07T19:33:26.918Z,96901.35
2019-02-07T19:35:56.230Z,96901.98
2019-02-07T19:38:25.600Z,96909.21
2019-02-07T19:40:54.907Z,96906.37
2019-02-07T19:43:24.221Z,96913.44
2019-02-07T19:45:53.523Z,96914.93
2019-02-07T19:48:22.837Z,96916.14
2019-02-07T19:50:52.160Z,96915.55
2019-02-07T19:53:21.671Z,96919.68
2019-02-07T19:55:50.967Z,96926.18
2019-02-07T19:58:38.860Z,96925.12
2019-02-07T20:01:08.191Z,96923.20
2019-02-07T20:03:37.485Z,96932.76
2019-02-07T20:06:06.821Z,96932.34
2019-02-07T20:08:36.146Z,96935.97
2019-02-07T20:11:05.646Z,96933.51
2019-02-07T20:13:35.054Z,96940.72
2019-02-07T20:16:04.341Z,96943.77
2019-02-07T20:18:33.771Z,96938.83
2019-02-07T20:21:03.348Z,96939.31
2019-02-07T20:23:32.679Z,96938.25
2019-02-07T20:26:02.041Z,96938.74
2019-02-07T20:28:31.341Z,96940.00
2019-02-07T20:31:00.670Z,96939.44
2019-02-07T20:33:29.997Z,96940.64
2019-02-07T20:35:59.326Z,96938.80
2019-02-07T20:38:28.831Z,96935.22
2019-02-07T20:40:58.129Z,96931.25
2019-02-07T20:43:27.459Z,96924.88
2019-02-07T20:45:56.786Z,96927.42
2019-02-07T20:48:26.086Z,96925.62
2019-02-07T20:50:55.406Z,96920.90
2019-02-07T20:53:24.720Z,96926.23
2019-02-07T20:55:54.025Z,96931.50
2019-02-07T20:58:23.352Z,96927.64
2019-02-07T21:00:52.652Z,96933.91
2019-02-07T21:03:21.975Z,96939.32
2019-02-07T21:05:51.300Z,96939.13
2019-02-07T21:08:20.593Z,96940.30
2019-02-07T21:10:50.172Z,96942.46
2019-02-07T21:13:19.498Z,96947.90
2019-02-07T21:15:48.794Z,96949.69
2019-02-07T21:18:18.116Z,96953.02
2019-02-07T21:20:47.442Z,96956.91
2019-02-07T21:23:16.795Z,96954.29
2019-02-07T21:25:49.966Z,96953.50
2019-02-07T21:28:19.285Z,96947.18
2019-02-07T21:30:48.608Z,96954.05
2019-02-07T21:33:17.936Z,96949.18
2019-02-07T21:35:47.261Z,96957.77
2019-02-07T21:38:16.633Z,96955.83
2019-02-07T21:40:45.946Z,96957.24
2019-02-07T21:43:15.537Z,96956.39
2019-02-07T21:45:44.837Z,96958.45
2019-02-07T21:48:14.167Z,96961.37
2019-02-07T21:50:43.465Z,96960.70
2019-02-07T21:53:12.788Z,96962.73
2019-02-07T21:55:42.122Z,96955.99
2019-02-07T21:58:12.221Z,96962.48
2019-02-07T22:00:46.727Z,96962.48
2019-02-07T22:03:16.155Z,96964.84
2019-02-07T22:05:45.477Z,96970.28
2019-02-07T22:08:14.805Z,96965.56
2019-02-07T22:10:44.102Z,96967.62
2019-02-07T22:13:13.804Z,96978.17
2019-02-07T22:15:43.102Z,96973.03
2019-02-07T22:18:12.425Z,96973.52
2019-02-07T22:20:41.756Z,96965.77
2019-02-07T22:23:11.046Z,96964.36
2019-02-07T22:25:40.372Z,96959.15
2019-02-07T22:28:10.719Z,96965.27
2019-02-07T22:30:40.114Z,96973.72
2019-02-07T22:33:09.521Z,96975.47
2019-02-07T22:35:38.866Z,96969.02
2019-02-07T22:38:08.165Z,96973.48
2019-02-07T22:40:37.468Z,96979.76
2019-02-07T22:43:07.070Z,96981.92
2019-02-07T22:45:36.396Z,96970.22
2019-02-07T22:48:06.135Z,96972.57
2019-02-07T22:50:35.453Z,96969.47
2019-02-07T22:53:04.948Z,96972.25
2019-02-07T22:55:34.248Z,96978.53
2019-02-07T22:58:04.297Z,96979.59
2019-02-07T23:00:44.933Z,96975.02
2019-02-07T23:03:19.388Z,96971.91
2019-02-07T23:05:48.715Z,96975.89
2019-02-07T23:08:18.004Z,96980.77
2019-02-07T23:10:47.605Z,96976.09
2019-02-07T23:13:16.939Z,96974.44
2019-02-07T23:15:46.242Z,96978.61
2019-02-07T23:18:15.540Z,96979.62
2019-02-07T23:20:44.861Z,96977.79
2019-02-07T23:23:14.191Z,96980.93
2019-02-07T23:25:43.672Z,96979.57
2019-02-07T23:28:12.996Z,96986.19
2019-02-07T23:30:42.294Z,96980.06
2019-02-07T23:33:11.623Z,96982.58
2019-02-07T23:35:40.925Z,96974.28
2019-02-07T23:38:10.253Z,96972.69
2019-02-07T23:40:39.831Z,96980.64
2019-02-07T23:43:09.585Z,96979.55
2019-02-07T23:45:38.889Z,96979.45
2019-02-07T23:48:08.180Z,96972.23
2019-02-07T23:50:37.493Z,96976.75
2019-02-07T23:53:14.252Z,96977.88
2019-02-07T23:55:37.881Z,96963.00
2019-02-07T23:58:07.187Z,96963.67
